Time;durP1;ratioP1;P1;durP2;ratioP2;P2;SDS_P1;SDS_P2;PMS_P1;PMS_P2;Temp;Humidity;BMP_temperature;BMP_pressure;BME280_temperature;BME280_humidity;BME280_pressure;Samples;Min_cycle;Max_cycle;Signal;HPM_P1;HPM_P2
2021/12/02 00:02:14;;;;;;;1.67;0.63;;;20.00;49.90;;;;;;2287086;62;20356;-65
2021/12/02 00:04:42;;;;;;;2.33;0.50;;;19.90;49.80;;;;;;2287096;62;20174;-65
2021/12/02 00:07:08;;;;;;;1.92;0.50;;;19.90;49.90;;;;;;2287034;62;20284;-65
2021/12/02 00:09:36;;;;;;;2.60;0.70;;;19.90;49.80;;;;;;2287074;62;20204;-65
2021/12/02 00:12:03;;;;;;;4.13;0.57;;;19.90;49.90;;;;;;2287047;62;20563;-65
2021/12/02 00:14:37;;;;;;;1.35;0.50;;;19.90;49.80;;;;;;2287042;62;20374;-65
2021/12/02 00:17:05;;;;;;;2.05;0.80;;;19.90;49.80;;;;;;2287067;62;20274;-65
2021/12/02 00:22:18;;;;;;;1.70;0.52;;;19.90;49.80;;;;;;2286949;62;20670;-65
2021/12/02 00:24:52;;;;;;;2.33;0.85;;;19.90;49.80;;;;;;2286918;62;20631;-65
2021/12/02 00:27:19;;;;;;;1.25;0.60;;;19.80;49.80;;;;;;2286940;62;20200;-65
2021/12/02 00:29:46;;;;;;;1.75;0.70;;;19.80;49.70;;;;;;2286972;62;20177;-65
2021/12/02 00:32:12;;;;;;;3.90;0.77;;;19.80;49.70;;;;;;2286951;62;20273;-65
2021/12/02 00:34:44;;;;;;;2.03;0.68;;;19.80;49.80;;;;;;2286904;62;20211;-65
2021/12/02 00:37:11;;;;;;;3.63;0.65;;;19.80;49.80;;;;;;2286846;62;20239;-65
2021/12/02 00:39:39;;;;;;;2.78;0.80;;;19.80;49.80;;;;;;2286962;62;20166;-66
2021/12/02 00:42:06;;;;;;;1.77;0.55;;;19.80;49.70;;;;;;2286853;62;20375;-65
2021/12/02 00:44:33;;;;;;;1.63;0.55;;;19.80;49.70;;;;;;2286800;62;20174;-65
2021/12/02 00:47:02;;;;;;;1.17;0.90;;;19.80;49.70;;;;;;2286891;62;20180;-66
2021/12/02 00:49:29;;;;;;;2.78;0.60;;;19.80;49.70;;;;;;2286857;62;20689;-65
2021/12/02 00:51:57;;;;;;;3.00;0.90;;;19.80;49.70;;;;;;2286872;62;20654;-66
2021/12/02 00:54:26;;;;;;;2.78;0.77;;;19.70;49.60;;;;;;2286828;62;20695;-66
2021/12/02 00:56:53;;;;;;;2.42;0.70;;;19.80;49.60;;;;;;2286781;62;20158;-65
2021/12/02 00:59:20;;;;;;;1.48;0.63;;;19.70;49.60;;;;;;2286843;62;20729;-66
2021/12/02 01:01:48;;;;;;;1.77;0.50;;;19.70;49.50;;;;;;2286797;62;20326;-66
2021/12/02 01:04:21;;;;;;;2.50;0.70;;;19.70;49.50;;;;;;2286710;62;20299;-66
2021/12/02 01:06:47;;;;;;;1.73;0.52;;;19.70;49.50;;;;;;2286554;62;20217;-65
2021/12/02 01:09:13;;;;;;;3.20;0.75;;;19.70;49.60;;;;;;2286740;62;20166;-66
2021/12/02 01:11:40;;;;;;;1.70;0.57;;;19.70;49.60;;;;;;2286682;62;20178;-66
2021/12/02 01:14:08;;;;;;;1.90;0.60;;;19.70;49.60;;;;;;2286697;62;20166;-66
2021/12/02 01:16:34;;;;;;;2.97;0.77;;;19.70;49.50;;;;;;2286728;62;20209;-65
2021/12/02 01:19:00;;;;;;;1.02;0.45;;;19.60;49.50;;;;;;2286731;62;20182;-66
2021/12/02 01:21:28;;;;;;;2.58;0.65;;;19.60;49.50;;;;;;2286743;62;20227;-66
2021/12/02 01:24:00;;;;;;;1.85;0.68;;;19.70;49.60;;;;;;2286653;62;20226;-66
2021/12/02 01:26:28;;;;;;;2.50;0.70;;;19.60;49.50;;;;;;2286663;62;20162;-65
2021/12/02 01:28:55;;;;;;;1.83;0.57;;;19.60;49.50;;;;;;2286650;62;20647;-65
2021/12/02 01:31:22;;;;;;;4.45;0.70;;;19.60;49.50;;;;;;2286658;62;20170;-66
2021/12/02 01:33:48;;;;;;;2.53;0.70;;;19.60;49.50;;;;;;2286611;62;20166;-66
2021/12/02 01:36:19;;;;;;;1.88;0.63;;;19.60;49.50;;;;;;2286527;62;20379;-65
2021/12/02 01:38:44;;;;;;;1.60;0.65;;;19.60;49.50;;;;;;2286614;62;20170;-65
2021/12/02 01:41:12;;;;;;;2.97;0.60;;;19.60;49.40;;;;;;2286559;62;20572;-66
2021/12/02 01:43:49;;;;;;;2.35;0.60;;;19.60;49.50;;;;;;2286394;62;20194;-65
2021/12/02 01:46:19;;;;;;;1.70;0.68;;;19.60;49.40;;;;;;2286545;62;20170;-65
2021/12/02 01:48:57;;;;;;;2.42;0.88;;;19.60;49.40;;;;;;2286543;62;20576;-66
2021/12/02 01:51:26;;;;;;;1.20;0.50;;;19.60;49.40;;;;;;2286528;62;20259;-66
2021/12/02 01:54:05;;;;;;;2.25;0.60;;;19.50;49.40;;;;;;2286527;62;20162;-66
2021/12/02 01:56:36;;;;;;;2.38;0.68;;;19.50;49.30;;;;;;2286430;62;20291;-65
2021/12/02 01:59:10;;;;;;;3.33;0.82;;;19.50;49.30;;;;;;2286509;62;20300;-66
2021/12/02 02:01:37;;;;;;;2.08;0.50;;;19.50;49.20;;;;;;2279130;62;20551;-65
2021/12/02 02:04:03;;;;;;;1.52;0.75;;;19.50;49.20;;;;;;2286366;62;20226;-65
2021/12/02 02:07:01;;;;;;;3.45;0.70;;;19.50;49.20;;;;;;2286361;62;20177;-66
2021/12/02 02:09:32;;;;;;;2.10;0.90;;;19.50;49.20;;;;;;2286377;62;20321;-65
2021/12/02 02:12:02;;;;;;;2.72;0.68;;;19.50;49.30;;;;;;2286404;62;20242;-66
2021/12/02 02:14:29;;;;;;;2.95;1.05;;;19.50;49.20;;;;;;2286406;62;20174;-65
2021/12/02 02:16:57;;;;;;;2.25;0.60;;;19.50;49.30;;;;;;2286400;62;20183;-66
2021/12/02 02:19:23;;;;;;;2.33;0.70;;;19.50;49.20;;;;;;2287090;62;20773;-66
2021/12/02 02:21:49;;;;;;;4.15;0.52;;;19.40;49.10;;;;;;2287705;62;20667;-65
2021/12/02 02:24:17;;;;;;;0.65;0.30;;;19.40;49.10;;;;;;2287716;62;20169;-65
2021/12/02 02:26:44;;;;;;;2.28;0.60;;;19.40;49.10;;;;;;2287664;62;20651;-65
2021/12/02 02:29:13;;;;;;;1.65;0.55;;;19.40;49.10;;;;;;2287675;62;20314;-65
2021/12/02 02:31:42;;;;;;;1.95;0.50;;;19.40;49.10;;;;;;2287699;62;20174;-66
2021/12/02 02:34:09;;;;;;;2.92;0.52;;;19.40;49.10;;;;;;2287571;62;20670;-67
2021/12/02 02:36:40;;;;;;;2.28;0.55;;;19.40;49.10;;;;;;2280133;62;20194;-65
2021/12/02 02:39:06;;;;;;;1.27;0.57;;;19.40;49.10;;;;;;2287645;62;20178;-65
2021/12/02 02:41:40;;;;;;;1.73;0.60;;;19.40;49.10;;;;;;2287599;62;20246;-65
2021/12/02 02:44:07;;;;;;;2.05;0.60;;;19.40;49.10;;;;;;2287439;62;20244;-65
2021/12/02 02:46:36;;;;;;;1.90;0.60;;;19.40;49.10;;;;;;2287590;62;20211;-66
2021/12/02 02:49:06;;;;;;;2.88;0.60;;;19.40;49.10;;;;;;2287580;62;20183;-66
2021/12/02 02:51:34;;;;;;;2.95;0.68;;;19.40;49.10;;;;;;2287561;62;20192;-65
2021/12/02 02:54:04;;;;;;;2.13;0.50;;;19.40;49.00;;;;;;2287557;62;20170;-65
2021/12/02 02:56:33;;;;;;;2.38;0.55;;;19.40;49.10;;;;;;2287476;62;20166;-65
2021/12/02 03:01:46;;;;;;;2.33;0.80;;;19.40;49.00;;;;;;2287482;62;20659;-65
2021/12/02 03:04:23;;;;;;;1.23;0.50;;;19.40;49.00;;;;;;2287444;62;20187;-65
2021/12/02 03:17:14;;;;;;;3.55;0.60;;;19.40;49.00;;;;;;2287400;62;20722;-65
2021/12/02 03:19:45;;;;;;;2.35;0.65;;;19.30;48.90;;;;;;2287379;62;20191;-65
2021/12/02 03:22:12;;;;;;;3.17;0.77;;;19.30;48.90;;;;;;2287384;62;20166;-65
2021/12/02 03:24:38;;;;;;;0.60;0.35;;;19.40;49.00;;;;;;2287366;62;20220;-65
2021/12/02 03:27:05;;;;;;;1.75;0.43;;;19.30;48.90;;;;;;2287319;62;20318;-65
2021/12/02 03:29:30;;;;;;;1.10;0.45;;;19.30;48.90;;;;;;2287379;62;20166;-65
2021/12/02 03:31:56;;;;;;;1.15;0.55;;;19.30;48.90;;;;;;2287286;62;20551;-65
2021/12/02 03:34:22;;;;;;;2.35;0.60;;;19.30;48.90;;;;;;2287297;62;20143;-65
2021/12/02 03:36:52;;;;;;;2.85;0.60;;;19.30;48.90;;;;;;2287207;62;20239;-66
2021/12/02 03:39:18;;;;;;;1.70;0.57;;;19.30;48.90;;;;;;2287295;62;20244;-66
2021/12/02 03:41:46;;;;;;;1.42;0.52;;;19.30;48.90;;;;;;2287272;62;20154;-66
2021/12/02 03:44:12;;;;;;;1.95;0.50;;;19.30;48.90;;;;;;2287045;62;20283;-65
2021/12/02 03:46:40;;;;;;;2.28;0.70;;;19.30;48.90;;;;;;2287256;62;20188;-65
2021/12/02 03:49:07;;;;;;;1.83;0.47;;;19.30;48.80;;;;;;2287228;62;20635;-65
2021/12/02 03:51:33;;;;;;;1.55;0.50;;;19.20;48.80;;;;;;2287244;62;20664;-65
2021/12/02 03:54:00;;;;;;;2.40;0.52;;;19.20;48.80;;;;;;2287191;62;20233;-65
2021/12/02 03:56:26;;;;;;;2.75;0.50;;;19.30;48.80;;;;;;2287160;62;20375;-65
2021/12/02 03:58:53;;;;;;;1.52;0.43;;;19.30;48.80;;;;;;2287153;62;20282;-65
2021/12/02 04:01:20;;;;;;;2.00;0.50;;;19.30;48.80;;;;;;2287131;62;20192;-65
2021/12/02 04:03:47;;;;;;;1.52;0.40;;;19.30;48.80;;;;;;2287073;62;20723;-66
2021/12/02 04:06:14;;;;;;;1.27;0.22;;;19.30;48.80;;;;;;2287060;62;20166;-65
2021/12/02 04:09:18;;;;;;;1.73;0.50;;;19.20;48.70;;;;;;2287074;62;20158;-66
2021/12/02 04:11:40;;;;;;;2.53;0.50;;;19.20;48.70;;;;;;2285333;62;20177;-65
2021/12/02 04:14:21;;;;;;;0.85;0.30;;;19.20;48.70;;;;;;2287054;62;20163;-65
2021/12/02 04:16:55;;;;;;;2.58;0.60;;;19.30;48.70;;;;;;2287039;62;20217;-65
2021/12/02 04:19:23;;;;;;;1.20;0.40;;;19.20;48.70;;;;;;2286976;62;20273;-65
2021/12/02 04:21:49;;;;;;;1.02;0.43;;;19.20;48.70;;;;;;2287013;62;20166;-64
2021/12/02 04:24:15;;;;;;;1.50;0.30;;;19.30;48.70;;;;;;2286997;62;20190;-64
2021/12/02 04:26:43;;;;;;;1.23;0.32;;;19.20;48.60;;;;;;2287000;62;20315;-64
2021/12/02 04:29:09;;;;;;;1.35;0.40;;;19.20;48.60;;;;;;2286989;62;20200;-65
2021/12/02 04:31:35;;;;;;;1.80;0.55;;;19.20;48.60;;;;;;2286959;62;20182;-64
2021/12/02 04:34:01;;;;;;;1.23;0.20;;;19.30;48.70;;;;;;2286924;62;20138;-65
2021/12/02 04:36:26;;;;;;;1.48;0.57;;;19.20;48.60;;;;;;2286914;62;20319;-65
2021/12/02 04:38:52;;;;;;;1.02;0.30;;;19.20;48.60;;;;;;2286935;62;20561;-65
2021/12/02 04:41:18;;;;;;;2.53;0.70;;;19.20;48.60;;;;;;2286633;62;20175;-65
2021/12/02 04:43:46;;;;;;;1.00;0.40;;;19.20;48.60;;;;;;2286781;62;20158;-65
2021/12/02 04:46:12;;;;;;;1.55;0.40;;;19.20;48.60;;;;;;2286915;62;20250;-65
2021/12/02 04:48:38;;;;;;;2.50;0.60;;;19.30;48.70;;;;;;2286504;62;20188;-65
2021/12/02 04:51:03;;;;;;;1.50;0.40;;;19.20;48.60;;;;;;2286864;62;20211;-65
2021/12/02 04:53:29;;;;;;;1.77;0.52;;;19.20;48.60;;;;;;2286885;62;20214;-64
2021/12/02 04:55:55;;;;;;;1.20;0.50;;;19.10;49.20;;;;;;2286802;62;20706;-65
2021/12/02 04:58:21;;;;;;;1.00;0.40;;;19.20;48.60;;;;;;2286776;62;20576;-65
2021/12/02 05:00:47;;;;;;;1.63;0.52;;;19.10;48.50;;;;;;2286837;62;20314;-65
2021/12/02 05:03:13;;;;;;;1.17;0.38;;;19.10;48.50;;;;;;2286775;62;20654;-65
2021/12/02 05:05:38;;;;;;;0.95;0.50;;;19.10;48.50;;;;;;2286696;62;20174;-65
2021/12/02 05:08:05;;;;;;;1.50;0.40;;;19.10;48.50;;;;;;2286844;62;20219;-64
2021/12/02 05:10:31;;;;;;;2.22;0.47;;;19.10;48.50;;;;;;2286777;62;20318;-65
2021/12/02 05:12:56;;;;;;;1.30;0.43;;;19.10;48.40;;;;;;2286698;62;20736;-64
2021/12/02 05:15:23;;;;;;;0.90;0.40;;;19.10;48.50;;;;;;2286705;62;20154;-65
2021/12/02 05:17:49;;;;;;;1.33;0.45;;;19.10;48.40;;;;;;2286708;62;20188;-64
2021/12/02 05:20:14;;;;;;;1.13;0.63;;;19.10;48.40;;;;;;2286673;62;20358;-65
2021/12/02 05:22:40;;;;;;;1.13;0.38;;;19.10;48.40;;;;;;2286591;62;20792;-64
2021/12/02 05:25:07;;;;;;;1.65;0.40;;;19.10;48.40;;;;;;2286607;62;20158;-64
2021/12/02 05:27:33;;;;;;;1.23;0.20;;;19.10;48.30;;;;;;2286633;62;20246;-64
2021/12/02 05:29:59;;;;;;;0.85;0.30;;;19.10;48.40;;;;;;2286638;62;20220;-64
2021/12/02 05:32:25;;;;;;;1.35;0.30;;;19.10;48.40;;;;;;2286659;62;20201;-65
2021/12/02 05:34:51;;;;;;;0.55;0.20;;;19.10;48.40;;;;;;2286605;62;20648;-65
2021/12/02 05:37:17;;;;;;;0.60;0.30;;;19.10;48.30;;;;;;2286541;62;20181;-65
2021/12/02 05:39:43;;;;;;;0.50;0.22;;;19.10;48.30;;;;;;2286647;62;20170;-65
2021/12/02 05:42:10;;;;;;;0.80;0.38;;;19.20;48.30;;;;;;2286603;62;20179;-64
2021/12/02 05:44:37;;;;;;;0.55;0.17;;;19.20;48.20;;;;;;2286388;62;20689;-65
2021/12/02 05:47:03;;;;;;;0.52;0.30;;;19.30;48.20;;;;;;2286494;62;20162;-64
2021/12/02 05:49:32;;;;;;;0.57;0.20;;;19.40;48.10;;;;;;2286537;62;20577;-64
2021/12/02 05:51:57;;;;;;;0.50;0.20;;;19.50;48.00;;;;;;2286514;62;20324;-64
2021/12/02 05:54:23;;;;;;;0.73;0.30;;;19.60;47.90;;;;;;2285972;62;20547;-65
2021/12/02 05:56:49;;;;;;;1.10;0.30;;;19.70;47.80;;;;;;2286435;62;20254;-64
2021/12/02 05:59:15;;;;;;;0.40;0.32;;;19.80;47.80;;;;;;2286374;62;20174;-64
2021/12/02 06:01:42;;;;;;;0.63;0.30;;;19.90;47.70;;;;;;2286441;62;20150;-64
2021/12/02 06:04:11;;;;;;;0.43;0.25;;;19.90;47.50;;;;;;2286359;62;20555;-64
2021/12/02 06:06:38;;;;;;;0.75;0.38;;;20.10;47.50;;;;;;2286358;62;20170;-64
2021/12/02 06:09:05;;;;;;;0.60;0.20;;;20.10;47.40;;;;;;2286452;62;20719;-64
2021/12/02 06:11:31;;;;;;;1.75;0.47;;;20.20;47.40;;;;;;2286367;62;20209;-65
2021/12/02 06:13:59;;;;;;;0.82;0.30;;;20.20;47.30;;;;;;2286371;62;20154;-65
2021/12/02 06:16:28;;;;;;;0.70;0.30;;;20.20;47.20;;;;;;2286366;62;20154;-65
2021/12/02 06:18:54;;;;;;;0.55;0.30;;;20.30;47.20;;;;;;2286346;62;20444;-65
2021/12/02 06:21:19;;;;;;;0.60;0.20;;;20.30;47.00;;;;;;2286362;62;20230;-65
2021/12/02 06:23:46;;;;;;;0.55;0.40;;;20.30;47.00;;;;;;2286241;62;20166;-65
2021/12/02 06:26:12;;;;;;;0.82;0.20;;;20.40;46.90;;;;;;2286331;62;20298;-65
2021/12/02 06:28:37;;;;;;;0.55;0.20;;;20.40;46.80;;;;;;2286294;62;20632;-64
2021/12/02 06:31:06;;;;;;;0.75;0.28;;;20.30;46.70;;;;;;2286295;62;20189;-66
2021/12/02 06:33:33;;;;;;;1.65;0.43;;;20.40;46.80;;;;;;2286218;62;20766;-64
2021/12/02 06:35:58;;;;;;;0.38;0.20;;;20.40;46.80;;;;;;2286150;62;20174;-64
2021/12/02 06:38:26;;;;;;;0.32;0.20;;;20.40;46.70;;;;;;2286298;62;20154;-64
2021/12/02 06:40:52;;;;;;;0.43;0.20;;;20.40;46.80;;;;;;2286233;62;20779;-64
2021/12/02 06:43:18;;;;;;;0.70;0.20;;;20.40;46.70;;;;;;2286117;62;20239;-64
2021/12/02 06:45:45;;;;;;;0.63;0.30;;;20.40;46.70;;;;;;2286107;62;20166;-65
2021/12/02 06:48:11;;;;;;;0.30;0.20;;;20.50;46.70;;;;;;2286236;62;20154;-66
2021/12/02 06:50:37;;;;;;;0.35;0.13;;;20.50;46.70;;;;;;2286187;62;20382;-65
2021/12/02 06:53:05;;;;;;;1.15;0.43;;;20.50;46.60;;;;;;2286173;62;20162;-65
2021/12/02 06:55:32;;;;;;;0.77;0.30;;;20.50;46.60;;;;;;2286127;62;20876;-66
2021/12/02 06:57:58;;;;;;;0.15;0.10;;;20.50;46.50;;;;;;2286084;62;20607;-65
2021/12/02 07:00:24;;;;;;;0.85;0.30;;;20.50;46.50;;;;;;2286140;62;20291;-66
2021/12/02 07:02:53;;;;;;;0.52;0.20;;;20.50;46.50;;;;;;2286032;62;20180;-65
2021/12/02 07:05:20;;;;;;;0.73;0.30;;;20.50;46.50;;;;;;2286627;62;20681;-65
2021/12/02 07:07:46;;;;;;;0.52;0.30;;;20.50;46.50;;;;;;2287493;62;20173;-65
2021/12/02 07:10:19;;;;;;;1.02;0.40;;;20.50;46.40;;;;;;2287500;62;20178;-65
2021/12/02 07:12:48;;;;;;;0.63;0.28;;;20.60;46.40;;;;;;2287370;62;20162;-65
2021/12/02 07:15:20;;;;;;;0.93;0.30;;;20.50;46.30;;;;;;2287440;62;20375;-65
2021/12/02 07:17:56;;;;;;;0.50;0.30;;;20.60;46.40;;;;;;2287354;62;20162;-65
2021/12/02 07:20:25;;;;;;;;;;;20.60;46.40;;;;;;2287786;62;20240;-64
2021/12/02 07:22:51;;;;;;;0.40;0.25;;;20.60;46.40;;;;;;2287299;62;20041;-65
2021/12/02 07:25:17;;;;;;;0.98;0.20;;;20.60;46.30;;;;;;2287264;62;20809;-65
2021/12/02 07:27:43;;;;;;;1.10;0.40;;;20.50;46.20;;;;;;2287281;62;20162;-64
2021/12/02 07:30:09;;;;;;;0.28;0.20;;;20.60;46.10;;;;;;2287333;62;20170;-65
2021/12/02 07:32:39;;;;;;;0.80;0.30;;;20.60;46.10;;;;;;2287286;62;20835;-65
2021/12/02 07:35:11;;;;;;;0.50;0.30;;;20.50;46.20;;;;;;2287303;62;20639;-64
2021/12/02 07:37:39;;;;;;;1.77;0.32;;;20.50;46.10;;;;;;2287190;62;20165;-65
2021/12/02 07:40:05;;;;;;;1.27;0.50;;;20.40;46.10;;;;;;2280009;62;20820;-64
2021/12/02 07:42:32;;;;;;;3.85;0.40;;;20.40;46.10;;;;;;2287227;62;20183;-64
2021/12/02 07:44:58;;;;;;;4.22;0.80;;;20.40;46.10;;;;;;2287129;62;20190;-64
2021/12/02 07:47:26;;;;;;;4.88;0.50;;;20.40;46.10;;;;;;2287228;62;20176;-64
2021/12/02 07:49:52;;;;;;;4.07;0.55;;;20.40;46.10;;;;;;2287198;62;20149;-65
2021/12/02 07:52:25;;;;;;;4.68;0.45;;;20.40;46.20;;;;;;2287148;62;20596;-64
2021/12/02 07:54:52;;;;;;;2.65;0.60;;;20.40;46.20;;;;;;2287309;62;20318;-64
2021/12/02 07:57:19;;;;;;;1.02;0.50;;;20.40;46.20;;;;;;2287109;62;20187;-64
2021/12/02 07:59:50;;;;;;;4.20;0.55;;;20.40;46.20;;;;;;2287092;62;20306;-64
2021/12/02 08:02:17;;;;;;;3.88;0.50;;;20.40;46.30;;;;;;2287090;62;20580;-64
2021/12/02 08:04:43;;;;;;;2.08;0.30;;;20.50;46.30;;;;;;2287097;62;20190;-65
2021/12/02 08:07:09;;;;;;;4.82;0.50;;;20.50;46.30;;;;;;2287584;62;20183;-65
2021/12/02 08:09:35;;;;;;;3.35;0.50;;;20.40;46.30;;;;;;2286918;62;20284;-64
2021/12/02 08:12:02;;;;;;;5.30;0.63;;;20.60;46.50;;;;;;2287032;62;20564;-64
2021/12/02 08:14:28;;;;;;;8.70;1.17;;;20.60;46.40;;;;;;2286935;62;20177;-64
2021/12/02 08:16:54;;;;;;;4.30;0.60;;;20.60;46.40;;;;;;2286645;62;20172;-65
2021/12/02 08:19:20;;;;;;;2.88;0.77;;;20.60;46.40;;;;;;2287037;62;20162;-65
2021/12/02 08:21:47;;;;;;;2.90;0.70;;;20.60;46.40;;;;;;2287017;62;20178;-65
2021/12/02 08:24:13;;;;;;;1.42;0.45;;;20.60;46.50;;;;;;2286962;62;20241;-64
2021/12/02 08:26:39;;;;;;;6.40;0.60;;;20.60;46.60;;;;;;2286919;62;20146;-64
2021/12/02 08:29:06;;;;;;;2.22;0.40;;;20.50;46.60;;;;;;2287151;62;20670;-64
2021/12/02 08:31:32;;;;;;;1.55;0.50;;;20.50;46.70;;;;;;2287023;62;20210;-64
2021/12/02 08:33:59;;;;;;;2.45;0.70;;;20.50;46.80;;;;;;2286891;62;20179;-64
2021/12/02 08:36:28;;;;;;;4.50;0.80;;;20.50;46.90;;;;;;2286858;62;20215;-64
2021/12/02 08:38:54;;;;;;;5.97;0.77;;;20.40;46.90;;;;;;2286855;62;20213;-64
2021/12/02 08:41:21;;;;;;;3.35;0.60;;;20.40;47.00;;;;;;2286886;62;20184;-64
2021/12/02 08:43:48;;;;;;;1.75;0.52;;;20.40;47.00;;;;;;2286704;62;20322;-65
2021/12/02 08:46:14;;;;;;;2.97;0.57;;;20.40;47.10;;;;;;2286910;62;20275;-64
2021/12/02 08:48:43;;;;;;;3.78;0.63;;;20.30;47.10;;;;;;2286922;62;20175;-64
2021/12/02 08:51:09;;;;;;;0.90;0.40;;;20.30;47.10;;;;;;2286824;62;20428;-64
2021/12/02 08:53:34;;;;;;;2.72;0.50;;;20.30;47.20;;;;;;2286863;62;20241;-65
2021/12/02 08:56:00;;;;;;;1.63;0.47;;;20.20;47.20;;;;;;2286835;62;20195;-64
2021/12/02 08:58:26;;;;;;;4.95;0.40;;;20.20;47.20;;;;;;2286744;62;20165;-65
2021/12/02 09:00:52;;;;;;;1.75;0.40;;;20.20;47.30;;;;;;2286806;62;20150;-64
2021/12/02 09:03:18;;;;;;;1.67;0.70;;;20.20;47.30;;;;;;2286744;62;20656;-64
2021/12/02 09:05:44;;;;;;;3.85;0.70;;;20.10;47.40;;;;;;2286717;62;20143;-64
2021/12/02 09:08:10;;;;;;;0.98;0.43;;;20.10;47.40;;;;;;2286753;62;20174;-64
2021/12/02 09:10:37;;;;;;;1.95;0.60;;;20.10;47.40;;;;;;2286716;62;20219;-64
2021/12/02 09:13:07;;;;;;;1.40;0.50;;;20.10;47.50;;;;;;2286696;62;20158;-64
2021/12/02 09:15:35;;;;;;;2.45;0.70;;;20.10;47.50;;;;;;2286693;62;20166;-64
2021/12/02 09:18:00;;;;;;;2.67;0.60;;;20.00;47.50;;;;;;2286731;62;20178;-64
2021/12/02 09:20:26;;;;;;;2.92;0.60;;;20.00;47.50;;;;;;2286667;62;20162;-65
2021/12/02 09:22:52;;;;;;;2.92;0.63;;;20.00;48.20;;;;;;2286650;62;20291;-64
2021/12/02 09:25:18;;;;;;;1.50;0.55;;;20.00;47.60;;;;;;2286687;62;20258;-64
2021/12/02 09:27:46;;;;;;;1.38;0.60;;;20.00;47.60;;;;;;2286504;62;20303;-64
2021/12/02 09:30:14;;;;;;;3.22;0.60;;;20.00;47.70;;;;;;2286573;62;20728;-64
2021/12/02 09:32:41;;;;;;;3.25;0.77;;;20.00;47.70;;;;;;2286623;62;20157;-64
2021/12/02 09:35:09;;;;;;;5.25;1.00;;;19.90;47.70;;;;;;2286590;62;20638;-64
2021/12/02 09:37:35;;;;;;;1.17;0.55;;;19.90;47.70;;;;;;2286513;62;20679;-64
2021/12/02 09:40:01;;;;;;;1.27;0.60;;;19.90;47.70;;;;;;2286567;62;20650;-64
2021/12/02 09:42:26;;;;;;;2.42;1.00;;;19.80;47.70;;;;;;2286515;62;20572;-64
2021/12/02 09:45:00;;;;;;;1.35;0.68;;;19.90;47.70;;;;;;2286405;62;20162;-64
2021/12/02 09:47:28;;;;;;;3.38;0.82;;;19.80;47.70;;;;;;2286533;62;20236;-64
2021/12/02 09:50:01;;;;;;;1.83;0.60;;;19.80;47.70;;;;;;2286458;62;20180;-64
2021/12/02 09:52:33;;;;;;;1.98;0.80;;;19.80;47.70;;;;;;2286509;62;20256;-64
2021/12/02 09:55:04;;;;;;;1.38;0.57;;;19.80;48.30;;;;;;2286490;62;20755;-64
2021/12/02 09:57:35;;;;;;;1.75;0.70;;;19.70;47.70;;;;;;2286460;62;20154;-63
2021/12/02 10:00:04;;;;;;;3.20;0.80;;;19.70;47.70;;;;;;2286435;62;20185;-64
2021/12/02 10:02:30;;;;;;;3.00;0.85;;;19.70;47.70;;;;;;2286431;62;20209;-64
2021/12/02 10:05:03;;;;;;;1.60;0.80;;;19.70;47.80;;;;;;2286473;62;20173;-64
2021/12/02 10:07:45;;;;;;;1.88;0.80;;;19.60;47.80;;;;;;2286312;62;20174;-64
2021/12/02 10:10:37;;;;;;;4.07;0.90;;;19.60;47.90;;;;;;2286319;62;20186;-64
2021/12/02 10:13:21;;;;;;;2.88;0.80;;;19.60;48.10;;;;;;2286217;62;20326;-64
2021/12/02 10:16:05;;;;;;;1.80;0.85;;;19.60;48.20;;;;;;2286327;62;20328;-64
2021/12/02 10:18:52;;;;;;;3.88;0.77;;;19.60;48.20;;;;;;2286368;62;20165;-64
2021/12/02 10:21:28;;;;;;;5.65;1.00;;;19.60;48.30;;;;;;2286297;62;20687;-64
2021/12/02 10:23:58;;;;;;;3.30;0.80;;;19.50;48.30;;;;;;2286311;62;20170;-64
2021/12/02 10:26:24;;;;;;;2.22;1.00;;;19.60;48.40;;;;;;2286283;62;20274;-64
2021/12/02 10:28:52;;;;;;;6.53;0.88;;;19.60;48.40;;;;;;2286257;62;20266;-64
2021/12/02 10:31:24;;;;;;;2.83;0.95;;;19.60;48.50;;;;;;2286287;62;20556;-64
2021/12/02 10:33:56;;;;;;;3.90;1.00;;;19.60;48.50;;;;;;2286258;62;20762;-64
2021/12/02 10:36:31;;;;;;;2.88;0.73;;;19.60;48.60;;;;;;2286168;62;20188;-64
2021/12/02 10:39:17;;;;;;;4.10;0.90;;;19.50;48.60;;;;;;2286225;62;20321;-64
2021/12/02 10:41:46;;;;;;;3.60;1.00;;;19.60;48.70;;;;;;2287630;62;20754;-64
2021/12/02 10:44:19;;;;;;;1.20;0.60;;;19.60;48.70;;;;;;2287427;62;20165;-64
2021/12/02 10:47:07;;;;;;;1.67;0.80;;;19.60;48.70;;;;;;2287577;62;20320;-64
2021/12/02 10:49:39;;;;;;;6.65;1.15;;;19.60;48.70;;;;;;2287591;62;20812;-64
2021/12/02 10:52:10;;;;;;;1.63;0.57;;;19.60;48.80;;;;;;2287532;62;20188;-64
2021/12/02 10:54:39;;;;;;;2.95;0.80;;;19.60;48.80;;;;;;2287478;62;20746;-64
2021/12/02 10:57:21;;;;;;;4.15;1.02;;;19.50;48.90;;;;;;2287493;62;20699;-64
2021/12/02 10:59:50;;;;;;;5.00;1.00;;;19.60;49.40;;;;;;2287456;62;20229;-64
2021/12/02 11:02:27;;;;;;;1.65;0.73;;;19.60;49.60;;;;;;2287421;62;20162;-64
2021/12/02 11:04:56;;;;;;;1.80;0.60;;;19.60;49.60;;;;;;2287462;62;20685;-64
2021/12/02 11:07:28;;;;;;;4.45;0.90;;;19.60;49.70;;;;;;2287311;62;20281;-64
2021/12/02 11:09:57;;;;;;;3.60;0.68;;;19.50;49.70;;;;;;2287399;62;20758;-64
2021/12/02 11:12:27;;;;;;;4.75;1.10;;;19.50;49.80;;;;;;2287397;62;20280;-64
2021/12/02 11:15:10;;;;;;;3.72;0.70;;;19.40;49.90;;;;;;2287355;62;20667;-64
2021/12/02 11:17:48;;;;;;;2.45;0.60;;;19.40;49.90;;;;;;2287381;62;20166;-64
2021/12/02 11:20:23;;;;;;;3.10;0.90;;;19.40;50.00;;;;;;2287417;62;20170;-64
2021/12/02 11:23:18;;;;;;;2.55;0.90;;;19.40;50.00;;;;;;2287319;62;20270;-63
2021/12/02 11:25:59;;;;;;;4.88;1.30;;;19.30;50.00;;;;;;2287351;62;20266;-64
2021/12/02 11:28:33;;;;;;;7.57;1.65;;;19.30;50.00;;;;;;2287286;62;20209;-64
2021/12/02 11:31:07;;;;;;;2.78;1.00;;;19.30;50.00;;;;;;2287352;62;20175;-64
2021/12/02 11:33:36;;;;;;;3.28;1.33;;;19.30;50.00;;;;;;2287301;62;20531;-64
2021/12/02 11:36:07;;;;;;;5.25;0.95;;;19.30;50.10;;;;;;2287194;62;20178;-64
2021/12/02 11:38:34;;;;;;;3.50;0.90;;;19.30;50.10;;;;;;2287287;62;20318;-64
2021/12/02 11:41:03;;;;;;;2.88;0.80;;;19.30;50.20;;;;;;2287298;62;20205;-64
2021/12/02 11:43:32;;;;;;;7.80;0.90;;;19.30;50.20;;;;;;2287172;62;20174;-64
2021/12/02 11:46:00;;;;;;;3.28;0.75;;;19.40;50.20;;;;;;2287111;62;20669;-64
2021/12/02 11:48:32;;;;;;;5.28;0.80;;;19.40;50.20;;;;;;2287178;62;20671;-64
2021/12/02 11:51:02;;;;;;;7.00;1.10;;;19.40;50.20;;;;;;2286778;62;20357;-64
2021/12/02 11:53:30;;;;;;;4.97;0.77;;;19.40;50.70;;;;;;2287126;62;20157;-64
2021/12/02 11:56:05;;;;;;;4.50;1.00;;;19.30;50.20;;;;;;2287189;62;20221;-63
2021/12/02 11:58:31;;;;;;;4.05;0.80;;;19.40;50.20;;;;;;2287135;62;20150;-64
2021/12/02 12:00:58;;;;;;;3.33;0.77;;;19.40;50.20;;;;;;2287168;62;20650;-64
2021/12/02 12:03:32;;;;;;;4.55;0.80;;;19.40;50.10;;;;;;2287072;62;20199;-64
2021/12/02 12:06:04;;;;;;;1.20;0.40;;;19.40;50.10;;;;;;2287090;62;20717;-64
2021/12/02 12:08:32;;;;;;;5.05;0.57;;;19.40;50.00;;;;;;2287083;62;20204;-64
2021/12/02 12:10:58;;;;;;;3.53;0.95;;;19.40;50.10;;;;;;2287078;62;20411;-64
2021/12/02 12:13:24;;;;;;;4.30;0.82;;;19.40;50.10;;;;;;2287028;62;20345;-64
2021/12/02 12:15:55;;;;;;;5.60;1.00;;;19.50;50.20;;;;;;2287006;62;20175;-64
2021/12/02 12:18:41;;;;;;;2.10;0.70;;;19.50;50.80;;;;;;2287055;62;20237;-64
2021/12/02 12:21:09;;;;;;;5.05;0.90;;;19.50;50.20;;;;;;2286941;62;20158;-63
2021/12/02 12:23:37;;;;;;;1.83;0.60;;;19.50;50.20;;;;;;2286998;62;20229;-64
2021/12/02 12:26:20;;;;;;;6.78;1.10;;;19.40;50.20;;;;;;2287019;62;20161;-65
2021/12/02 12:29:07;;;;;;;5.30;0.95;;;19.50;50.20;;;;;;2286881;62;20744;-64
2021/12/02 12:32:04;;;;;;;2.70;0.60;;;19.40;50.10;;;;;;2286996;62;20203;-64
2021/12/02 12:36:57;;;;;;;2.15;0.80;;;19.40;50.30;;;;;;2283716;62;20190;-65
2021/12/02 12:39:28;;;;;;;4.70;0.90;;;19.40;50.40;;;;;;2286136;62;20187;-66
2021/12/02 12:42:13;;;;;;;3.90;1.20;;;19.40;50.50;;;;;;2286598;62;20849;-63
2021/12/02 12:44:51;;;;;;;5.20;1.00;;;19.50;50.60;;;;;;2286295;62;20193;-64
2021/12/02 12:47:19;;;;;;;6.10;0.90;;;19.50;50.60;;;;;;2286513;62;20477;-64
2021/12/02 12:49:46;;;;;;;2.95;1.05;;;19.40;50.60;;;;;;2286455;62;20251;-64
2021/12/02 12:52:19;;;;;;;5.30;1.00;;;19.50;50.70;;;;;;2286435;62;20207;-64
2021/12/02 12:55:15;;;;;;;4.50;0.90;;;19.50;50.70;;;;;;2285148;62;20204;-64
2021/12/02 12:58:06;;;;;;;4.05;0.88;;;19.40;50.60;;;;;;2278864;62;20216;-64
2021/12/02 13:00:41;;;;;;;2.40;0.75;;;19.50;50.70;;;;;;2280211;62;20175;-63
2021/12/02 13:03:17;;;;;;;4.35;1.15;;;19.40;50.60;;;;;;2277783;62;20204;-63
2021/12/02 13:05:55;;;;;;;3.50;0.77;;;19.40;50.60;;;;;;2280564;62;20295;-63
2021/12/02 13:08:23;;;;;;;3.67;0.95;;;19.40;50.60;;;;;;2277253;62;20328;-63
2021/12/02 13:10:59;;;;;;;2.15;0.85;;;19.50;50.70;;;;;;2277534;62;20251;-67
2021/12/02 13:13:34;;;;;;;;;;;19.50;50.60;;;;;;2284725;62;20190;-64
2021/12/02 13:16:16;;;;;;;3.95;0.90;;;19.50;50.60;;;;;;2285414;62;20079;-64
2021/12/02 13:18:59;;;;;;;4.65;1.08;;;19.50;50.60;;;;;;2285147;62;20182;-63